Pays
Station

 

Conditions  météo  pour  Tetuan/Sania Ramel  -  Maroc    Maroc

  
23 °C
    
 
 

METAR pour Tetuan/Sania Ramel :

GMTN 162000Z 11006KT 9999 FEW020 23/16 Q1015 NOSIG

 

Voici le bulletin pour Tetuan/Sania Ramel - Maroc.
 
Le bulletin a été fait il y a un moment, à 20:00 UTC .
Le vent soufflait à la vitesse de 3.1 mètres par seconde de Est/Sud-est (110°).
 
La température était de 23 °C, avec un point de rosée à 16 °C.
La température ressentie était de 24 °C.
 
La pression atmosphérique était de 1015 hPa.
L'humidité relative était de 64.7%.
 
Il y avait 1 à 2/8ème de nébulosité à une hauteur de 610 mètres.
 
La visibilité globale était de supérieure à 10 kilomètres.
 

 
 
 

Pays :   A   B   C   D   E   F   G   H   I   J   K   L   M   N   O   P   Q   R   S   T   U   V   W   Y   Z

 

Partenaires :  Info Météo avec Met'info
Météo Marine avec MeteoMarine.net
Infos Site  |  Infos Légales  |  Crédits  |  Confidentialité
Contactez-nous  |  Ajouter aux favoris
© 2013-2018 METAR - Tous droits réservés